메인 페이지
METAR-TAF:

METAR-TAF

공항 :

다마스쿠스, 시리아

다마스쿠스 국제공항

위도: 33-25N, 경도: 036-31E, 고도: 608m

현재 날씨관측

예보는 2 시간 47분 전, 07:00시(UTC)에 발표되었습니다.
남남서12kt
온도 9°C
습도 87%
기압 1013 hPa
시정: 3000m
고도 3000ft 상공 구름 많음
고도 10000ft 상공 흐림
약한비, 박무

METAR: OSDI 180700Z 21012KT 3000 -RABR BKN030 OVC100 09/07 Q1013

시각: 11:47 (09:47 UTC)

예보

예보 대상 시간: 18일 06시부터 19일 12시까지 (UTC)
남서12kt
시정: 8000m
고도 3000ft 상공 구름 보통
고도 10000ft 상공 구름 많음
전환 중
18일 22시부터 18일 24시까지 (UTC)
20kt, 순간 최대 풍속 35kt
고도 2500ft 상공 구름 보통, 적란운.
고도 3000ft 상공 구름 많음
고도 9000ft 상공 흐림
소나기

TAF: OSDI 1806/1912 22012KT 8000 SCT030 BKN100 BECMG 1822/1824 26020G35KT 3000TS SHRA SCT025CB BKN030 OVC090

4,000개 이상의 공항 관측 자료 및 예보 (METAR 및 TAF 보고).

지도상에서 검색 가능한 기상관측소가 노란 점과 빨간 점으로 표시되어 있습니다.

기상관측소 명을 보려면 표시 위로 마우스를 이동하세요.

날씨 관측과 예보를 보려면 클릭하세요.

지도 변경 : 확대하려면 엑스 표시가 있는 녹색 버튼, 축소하려면 빼기 표시가 있는 녹색 버튼, 다음 페이지의 지도를 보려면 녹색 화살표를 클릭하세요.


METAR-TAF: